createdAt,value
2022-08-19T00:01:59.616Z,0.65
2022-08-19T00:04:34.653Z,0.88
2022-08-19T00:07:01.500Z,0.80
2022-08-19T00:09:28.827Z,0.70
2022-08-19T00:11:56.617Z,1.13
2022-08-19T00:14:25.388Z,0.90
2022-08-19T00:16:55.265Z,0.88
2022-08-19T00:19:23.350Z,0.63
2022-08-19T00:21:50.382Z,0.80
2022-08-19T00:24:17.086Z,0.85
2022-08-19T00:26:44.806Z,0.70
2022-08-19T00:29:13.850Z,0.75
2022-08-19T00:31:40.603Z,0.90
2022-08-19T00:34:07.215Z,0.77
2022-08-19T00:36:34.126Z,1.00
2022-08-19T00:39:01.406Z,0.77
2022-08-19T00:44:07.568Z,0.80
2022-08-19T00:46:37.677Z,0.70
2022-08-19T00:49:31.922Z,0.80
2022-08-19T00:52:02.953Z,0.90
2022-08-19T00:54:32.397Z,0.63
2022-08-19T00:57:00.762Z,0.80
2022-08-19T00:59:56.168Z,0.55
2022-08-19T01:02:16.835Z,0.70
2022-08-19T01:04:43.380Z,0.93
2022-08-19T01:07:10.018Z,0.70
2022-08-19T01:09:41.795Z,0.60
2022-08-19T01:12:09.568Z,0.60
2022-08-19T01:14:40.112Z,0.60
2022-08-19T01:17:09.318Z,0.80
2022-08-19T01:19:44.180Z,0.73
2022-08-19T01:22:35.664Z,0.60
2022-08-19T01:25:02.303Z,0.90
2022-08-19T01:27:43.680Z,0.70
2022-08-19T01:30:15.027Z,0.55
2022-08-19T01:32:41.838Z,0.63
2022-08-19T01:35:09.811Z,0.82
2022-08-19T01:38:00.976Z,0.75
2022-08-19T01:40:33.718Z,0.57
2022-08-19T01:43:00.785Z,0.60
2022-08-19T01:45:29.841Z,0.80
2022-08-19T01:48:02.234Z,0.80
2022-08-19T01:50:32.077Z,0.50
2022-08-19T01:53:03.605Z,1.10
2022-08-19T01:55:34.443Z,0.68
2022-08-19T01:58:03.010Z,0.70
2022-08-19T02:00:32.146Z,0.75
2022-08-19T02:02:58.940Z,0.77
2022-08-19T02:05:25.855Z,0.82
2022-08-19T02:07:52.417Z,0.80
2022-08-19T02:10:22.028Z,0.50
2022-08-19T02:12:50.430Z,0.70
2022-08-19T02:15:19.843Z,0.73
2022-08-19T02:17:46.926Z,0.63
2022-08-19T02:20:14.395Z,0.50
2022-08-19T02:22:43.341Z,0.60
2022-08-19T02:25:12.390Z,0.68
2022-08-19T02:27:40.363Z,0.40
2022-08-19T02:30:09.262Z,0.52
2022-08-19T02:32:44.261Z,0.65
2022-08-19T02:35:21.760Z,0.40
2022-08-19T02:40:35.355Z,0.50
2022-08-19T02:43:08.454Z,0.60
2022-08-19T02:45:41.561Z,0.68
2022-08-19T02:50:55.738Z,0.50
2022-08-19T02:53:24.828Z,0.73
2022-08-19T02:55:52.319Z,0.70
2022-08-19T02:58:19.856Z,0.60
2022-08-19T03:00:50.589Z,0.50
2022-08-19T03:03:17.884Z,0.57
2022-08-19T03:05:48.301Z,0.63
2022-08-19T03:08:23.797Z,0.60
2022-08-19T03:10:50.331Z,0.65
2022-08-19T03:13:18.870Z,0.57
2022-08-19T03:15:48.393Z,0.50
2022-08-19T03:18:16.229Z,0.40
2022-08-19T03:20:48.152Z,0.50
2022-08-19T03:23:16.246Z,0.60
2022-08-19T03:25:46.327Z,0.50
2022-08-19T03:28:14.937Z,0.52
2022-08-19T03:30:43.581Z,0.60
2022-08-19T03:33:18.166Z,0.60
2022-08-19T03:35:46.114Z,0.50
2022-08-19T03:38:12.666Z,0.30
2022-08-19T03:40:39.211Z,0.63
2022-08-19T03:43:06.687Z,0.65
2022-08-19T03:45:33.215Z,0.73
2022-08-19T03:47:59.939Z,0.60
2022-08-19T03:50:26.463Z,0.60
2022-08-19T03:52:53.437Z,0.60
2022-08-19T03:57:48.641Z,0.85
2022-08-19T04:00:16.270Z,0.50
2022-08-19T04:02:56.563Z,0.68
2022-08-19T04:05:29.620Z,0.47
2022-08-19T04:07:59.749Z,0.50
2022-08-19T04:10:26.395Z,0.47
2022-08-19T04:12:53.119Z,0.70
2022-08-19T04:15:20.019Z,0.50
2022-08-19T04:17:47.036Z,0.50
2022-08-19T04:20:13.567Z,0.80
2022-08-19T04:22:40.148Z,0.60
2022-08-19T04:25:06.907Z,0.60
2022-08-19T04:27:34.363Z,0.50
2022-08-19T04:30:00.962Z,0.60
2022-08-19T04:32:27.499Z,0.60
2022-08-19T04:35:02.021Z,0.45
2022-08-19T04:37:43.092Z,0.45
2022-08-19T04:40:28.640Z,0.43
2022-08-19T04:42:55.527Z,0.50
2022-08-19T04:45:22.872Z,0.60
2022-08-19T04:47:58.059Z,0.50
2022-08-19T04:50:29.099Z,0.68
2022-08-19T04:52:57.073Z,0.50
2022-08-19T04:55:26.675Z,0.63
2022-08-19T04:57:54.096Z,0.50
2022-08-19T05:00:20.830Z,0.50
2022-08-19T05:02:47.469Z,0.38
2022-08-19T05:05:14.488Z,0.45
2022-08-19T05:07:42.061Z,0.40
2022-08-19T05:10:08.887Z,0.50
2022-08-19T05:12:35.481Z,0.52
2022-08-19T05:15:04.992Z,0.60
2022-08-19T05:17:37.488Z,0.40
2022-08-19T05:20:26.315Z,0.57
2022-08-19T05:22:53.395Z,0.68
2022-08-19T05:25:21.513Z,0.60
2022-08-19T05:27:48.791Z,0.50
2022-08-19T05:30:16.013Z,0.50
2022-08-19T05:35:10.374Z,0.40
2022-08-19T05:37:36.947Z,0.52
2022-08-19T05:40:05.119Z,0.50
2022-08-19T05:42:31.733Z,0.47
2022-08-19T05:44:58.423Z,0.70
2022-08-19T05:47:25.026Z,0.50
2022-08-19T05:49:51.937Z,0.50
2022-08-19T05:52:19.605Z,0.60
2022-08-19T05:54:52.771Z,0.45
2022-08-19T05:57:20.072Z,0.45
2022-08-19T05:59:53.192Z,0.60
2022-08-19T06:02:29.080Z,0.60
2022-08-19T06:04:55.699Z,0.60
2022-08-19T06:07:22.707Z,0.43
2022-08-19T06:09:59.716Z,0.60
2022-08-19T06:12:32.354Z,0.55
2022-08-19T06:15:01.229Z,0.35
2022-08-19T06:17:32.248Z,0.82
2022-08-19T06:20:00.050Z,0.30
2022-08-19T06:22:27.363Z,0.50
2022-08-19T06:24:55.009Z,0.50
2022-08-19T06:27:22.610Z,0.40
2022-08-19T06:29:49.445Z,0.60
2022-08-19T06:32:17.635Z,0.45
2022-08-19T06:34:44.299Z,0.50
2022-08-19T06:37:12.601Z,0.75
2022-08-19T06:39:41.298Z,0.47
2022-08-19T06:42:11.064Z,0.50
2022-08-19T06:44:43.167Z,0.60
2022-08-19T06:47:14.624Z,0.50
2022-08-19T06:49:42.827Z,0.50
2022-08-19T06:52:15.310Z,0.63
2022-08-19T06:54:55.384Z,0.50
2022-08-19T06:57:24.903Z,0.40
2022-08-19T06:59:52.045Z,0.30
2022-08-19T07:02:19.904Z,1.27
2022-08-19T07:04:46.481Z,0.68
2022-08-19T07:07:19.855Z,0.82
2022-08-19T07:09:58.412Z,0.93
2022-08-19T07:12:30.484Z,1.00
2022-08-19T07:14:58.699Z,1.27
2022-08-19T07:17:25.535Z,0.90
2022-08-19T07:19:54.523Z,1.20
2022-08-19T07:22:24.270Z,0.95
2022-08-19T07:24:54.283Z,0.65
2022-08-19T07:27:24.512Z,1.90
2022-08-19T07:29:57.326Z,0.98
2022-08-19T07:32:27.737Z,0.90
2022-08-19T07:34:55.055Z,1.00
2022-08-19T07:37:23.331Z,0.90
2022-08-19T07:39:49.980Z,0.80
2022-08-19T07:42:17.442Z,1.10
2022-08-19T07:44:50.413Z,1.02
2022-08-19T07:47:48.840Z,1.00
2022-08-19T07:50:07.724Z,1.23
2022-08-19T07:52:35.166Z,2.13
2022-08-19T07:57:31.306Z,1.45
2022-08-19T07:59:57.923Z,0.93
2022-08-19T08:02:24.527Z,1.73
2022-08-19T08:05:09.294Z,1.00
2022-08-19T08:07:54.192Z,1.00
2022-08-19T08:10:21.560Z,0.95
2022-08-19T08:13:09.575Z,1.23
2022-08-19T08:15:42.594Z,1.20
2022-08-19T08:18:10.574Z,1.00
2022-08-19T08:23:22.091Z,1.30
2022-08-19T08:25:49.953Z,1.02
2022-08-19T08:28:18.158Z,1.02
2022-08-19T08:30:46.723Z,1.20
2022-08-19T08:35:46.756Z,1.20
2022-08-19T08:38:13.333Z,1.20
2022-08-19T08:40:42.592Z,0.80
2022-08-19T08:43:11.165Z,0.98
2022-08-19T08:45:53.764Z,1.00
2022-08-19T08:48:54.159Z,0.90
2022-08-19T08:51:34.928Z,1.10
2022-08-19T08:54:07.700Z,1.17
2022-08-19T08:56:39.737Z,1.30
2022-08-19T08:59:16.243Z,1.23
2022-08-19T09:01:42.810Z,1.13
2022-08-19T09:04:11.179Z,0.90
2022-08-19T09:06:57.687Z,1.13
2022-08-19T09:09:44.539Z,1.05
2022-08-19T09:12:19.132Z,0.90
2022-08-19T09:14:57.998Z,1.10
2022-08-19T09:17:32.012Z,1.00
2022-08-19T09:20:09.178Z,1.08
2022-08-19T09:22:40.435Z,1.00
2022-08-19T09:25:09.926Z,1.67
2022-08-19T09:27:42.742Z,1.35
2022-08-19T09:30:14.174Z,1.27
2022-08-19T09:32:42.895Z,0.98
2022-08-19T09:35:10.167Z,1.83
2022-08-19T09:37:36.821Z,0.77
2022-08-19T09:40:04.886Z,1.10
2022-08-19T09:42:35.222Z,1.10
2022-08-19T09:45:04.993Z,0.90
2022-08-19T09:47:33.427Z,1.33
2022-08-19T09:49:59.983Z,1.10
2022-08-19T09:52:32.739Z,1.23
2022-08-19T09:55:00.051Z,1.10
2022-08-19T09:57:26.902Z,1.00
2022-08-19T09:59:54.432Z,0.75
2022-08-19T10:02:22.020Z,0.82
2022-08-19T10:05:07.867Z,1.02
2022-08-19T10:10:05.414Z,0.80
2022-08-19T10:12:34.936Z,0.65
2022-08-19T10:15:02.515Z,1.15
2022-08-19T10:17:31.639Z,1.15
2022-08-19T10:20:00.954Z,0.90
2022-08-19T10:22:27.697Z,1.02
2022-08-19T10:24:54.681Z,0.90
2022-08-19T10:27:21.760Z,0.70
2022-08-19T10:29:49.003Z,1.15
2022-08-19T10:34:48.486Z,0.90
2022-08-19T10:37:18.083Z,0.95
2022-08-19T10:39:50.682Z,1.50
2022-08-19T10:42:17.974Z,0.82
2022-08-19T10:47:17.799Z,1.30
2022-08-19T10:50:11.670Z,1.00
2022-08-19T10:52:39.687Z,0.90
2022-08-19T10:55:34.408Z,1.13
2022-08-19T10:58:02.462Z,0.98
2022-08-19T11:00:30.069Z,0.77
2022-08-19T11:02:56.812Z,1.00
2022-08-19T11:05:24.218Z,1.13
2022-08-19T11:07:52.635Z,1.20
2022-08-19T11:10:21.918Z,0.93
2022-08-19T11:12:49.543Z,0.70
2022-08-19T11:15:16.677Z,0.68
2022-08-19T11:17:44.491Z,0.90
2022-08-19T11:20:15.792Z,1.10
2022-08-19T11:22:43.223Z,0.80
2022-08-19T11:25:11.885Z,1.02
2022-08-19T11:27:43.851Z,0.95
2022-08-19T11:30:12.988Z,0.90
2022-08-19T11:32:44.487Z,1.00
2022-08-19T11:35:14.036Z,0.70
2022-08-19T11:37:41.640Z,0.70
2022-08-19T11:40:09.209Z,0.60
2022-08-19T11:42:54.382Z,0.80
2022-08-19T11:45:20.932Z,0.70
2022-08-19T11:47:48.317Z,0.60
2022-08-19T11:50:17.254Z,0.80
2022-08-19T11:52:45.962Z,0.80
2022-08-19T11:55:14.314Z,0.65
2022-08-19T11:57:42.171Z,0.77
2022-08-19T12:00:10.524Z,0.60
2022-08-19T12:02:37.218Z,0.75
2022-08-19T12:05:04.955Z,0.70
2022-08-19T12:07:35.281Z,0.80
2022-08-19T12:10:01.919Z,0.70
2022-08-19T12:12:30.361Z,0.52
2022-08-19T12:14:59.205Z,0.80
2022-08-19T12:17:27.755Z,0.80
2022-08-19T12:19:55.151Z,0.77
2022-08-19T12:22:22.317Z,0.90
2022-08-19T12:27:32.354Z,0.73
2022-08-19T12:30:06.193Z,0.73
2022-08-19T12:32:33.107Z,0.70
2022-08-19T12:34:59.638Z,0.85
2022-08-19T12:37:26.242Z,0.57
2022-08-19T12:39:52.833Z,0.52
2022-08-19T12:42:19.676Z,0.77
2022-08-19T12:44:46.312Z,0.45
2022-08-19T12:47:18.036Z,0.90
2022-08-19T12:52:23.872Z,0.70
2022-08-19T12:54:54.510Z,0.70
2022-08-19T12:57:32.179Z,0.55
2022-08-19T13:00:11.819Z,0.70
2022-08-19T13:02:41.489Z,0.68
2022-08-19T13:05:10.777Z,0.70
2022-08-19T13:07:39.490Z,0.60
2022-08-19T13:10:12.822Z,0.70
2022-08-19T13:15:11.191Z,0.82
2022-08-19T13:17:39.966Z,0.70
2022-08-19T13:20:09.684Z,0.52
2022-08-19T13:22:37.078Z,0.60
2022-08-19T13:25:06.341Z,0.90
2022-08-19T13:27:32.920Z,0.70
2022-08-19T13:30:18.300Z,0.60
2022-08-19T13:35:29.741Z,0.70
2022-08-19T13:37:56.363Z,0.45
2022-08-19T13:40:27.175Z,0.35
2022-08-19T13:42:55.454Z,0.77
2022-08-19T13:45:25.373Z,0.63
2022-08-19T13:47:59.312Z,0.65
2022-08-19T13:50:32.144Z,0.57
2022-08-19T13:52:59.191Z,0.50
2022-08-19T13:55:26.218Z,0.55
2022-08-19T13:57:57.348Z,0.50
2022-08-19T14:00:27.328Z,0.43
2022-08-19T14:02:57.662Z,0.70
2022-08-19T14:05:25.854Z,0.55
2022-08-19T14:07:52.760Z,0.60
2022-08-19T14:10:20.087Z,1.05
2022-08-19T14:12:47.368Z,0.70
2022-08-19T14:15:14.848Z,0.73
2022-08-19T14:17:43.456Z,0.45
2022-08-19T14:20:17.836Z,0.50
2022-08-19T14:22:47.052Z,0.73
2022-08-19T14:25:16.802Z,0.80
2022-08-19T14:27:43.814Z,0.55
2022-08-19T14:30:13.435Z,0.60
2022-08-19T14:32:40.084Z,0.77
2022-08-19T14:35:08.353Z,0.90
2022-08-19T14:37:45.176Z,0.47
2022-08-19T14:40:15.104Z,0.80
2022-08-19T14:42:42.868Z,0.60
2022-08-19T14:45:10.808Z,0.50
2022-08-19T14:47:39.776Z,1.48
2022-08-19T14:50:10.603Z,0.98
2022-08-19T14:52:44.691Z,0.95
2022-08-19T14:55:11.715Z,0.73
2022-08-19T14:57:38.282Z,0.70
2022-08-19T15:00:05.678Z,1.27
2022-08-19T15:02:34.890Z,1.00
2022-08-19T15:05:02.795Z,0.95
2022-08-19T15:07:30.342Z,1.45
2022-08-19T15:09:57.769Z,0.70
2022-08-19T15:12:24.985Z,0.93
2022-08-19T15:17:25.760Z,0.80
2022-08-19T15:20:10.927Z,0.55
2022-08-19T15:22:38.206Z,1.23
2022-08-19T15:27:33.219Z,1.25
2022-08-19T15:30:01.468Z,0.40
2022-08-19T15:32:29.087Z,0.38
2022-08-19T15:34:55.807Z,0.45
2022-08-19T15:37:24.002Z,0.30
2022-08-19T15:39:51.308Z,0.50
2022-08-19T15:42:30.149Z,0.40
2022-08-19T15:45:00.718Z,0.10
2022-08-19T15:47:35.407Z,0.35
2022-08-19T15:50:23.805Z,0.60
2022-08-19T15:52:53.967Z,0.40
2022-08-19T15:55:33.323Z,0.20
2022-08-19T15:58:30.612Z,0.20
2022-08-19T16:01:20.802Z,0.10
2022-08-19T16:04:13.848Z,0.35
2022-08-19T16:07:02.308Z,0.25
2022-08-19T16:09:31.206Z,0.20
2022-08-19T16:12:04.843Z,0.30
2022-08-19T16:14:35.387Z,0.25
2022-08-19T16:17:02.614Z,0.25
2022-08-19T16:19:29.215Z,0.22
2022-08-19T16:21:57.267Z,0.15
2022-08-19T16:24:26.365Z,0.22
2022-08-19T16:26:53.394Z,0.30
2022-08-19T16:29:34.899Z,0.20
2022-08-19T16:32:10.273Z,0.30
2022-08-19T16:34:38.458Z,0.30
2022-08-19T16:37:05.143Z,0.30
2022-08-19T16:39:31.823Z,0.22
2022-08-19T16:41:58.886Z,0.40
2022-08-19T16:44:27.006Z,0.40
2022-08-19T16:46:59.139Z,0.30
2022-08-19T16:49:53.465Z,0.32
2022-08-19T16:52:14.871Z,0.30
2022-08-19T16:54:43.581Z,0.22
2022-08-19T16:57:11.910Z,0.30
2022-08-19T16:59:43.671Z,0.52
2022-08-19T17:02:18.509Z,0.28
2022-08-19T17:04:55.699Z,0.30
2022-08-19T17:07:27.169Z,0.10
2022-08-19T17:09:53.835Z,0.30
2022-08-19T17:12:21.821Z,0.38
2022-08-19T17:14:49.125Z,0.20
2022-08-19T17:19:44.586Z,1.20
2022-08-19T17:22:12.941Z,0.20
2022-08-19T17:24:40.635Z,0.30
2022-08-19T17:27:07.646Z,0.35
2022-08-19T17:29:34.330Z,0.30
2022-08-19T17:32:02.075Z,0.28
2022-08-19T17:34:28.627Z,0.30
2022-08-19T17:36:57.137Z,0.40
2022-08-19T17:39:25.182Z,0.60
2022-08-19T17:41:51.748Z,0.43
2022-08-19T17:44:18.880Z,0.32
2022-08-19T17:46:46.690Z,0.68
2022-08-19T17:49:13.571Z,0.30
2022-08-19T17:51:45.075Z,0.35
2022-08-19T17:54:15.717Z,0.30
2022-08-19T17:56:43.203Z,0.40
2022-08-19T17:59:13.783Z,0.65
2022-08-19T18:01:52.041Z,0.70
2022-08-19T18:04:20.824Z,0.40
2022-08-19T18:06:53.607Z,0.35
2022-08-19T18:09:23.962Z,0.40
2022-08-19T18:11:52.901Z,0.95
2022-08-19T18:14:32.893Z,0.40
2022-08-19T18:17:05.928Z,0.30
2022-08-19T18:19:42.301Z,0.65
2022-08-19T18:22:12.283Z,0.68
2022-08-19T18:24:41.552Z,0.52
2022-08-19T18:27:08.268Z,0.30
2022-08-19T18:29:38.079Z,0.40
2022-08-19T18:32:05.351Z,0.38
2022-08-19T18:34:31.859Z,0.22
2022-08-19T18:36:58.370Z,0.20
2022-08-19T18:39:44.455Z,0.50
2022-08-19T18:42:35.414Z,0.25
2022-08-19T18:45:20.707Z,0.13
2022-08-19T18:48:05.509Z,0.30
2022-08-19T18:50:33.106Z,0.68
2022-08-19T18:52:59.767Z,0.55
2022-08-19T18:55:29.235Z,0.28
2022-08-19T18:57:56.058Z,0.40
2022-08-19T19:00:22.743Z,0.30
2022-08-19T19:02:50.142Z,0.15
2022-08-19T19:05:16.771Z,0.90
2022-08-19T19:07:43.320Z,0.20
2022-08-19T19:10:10.021Z,0.30
2022-08-19T19:12:41.950Z,0.20
2022-08-19T19:15:09.040Z,0.17
2022-08-19T19:17:35.615Z,0.25
2022-08-19T19:20:02.468Z,0.13
2022-08-19T19:22:29.007Z,0.00
2022-08-19T19:24:55.686Z,0.30
2022-08-19T19:27:22.720Z,0.10
2022-08-19T19:29:52.245Z,0.10
2022-08-19T19:32:24.024Z,0.25
2022-08-19T19:34:50.560Z,0.13
2022-08-19T19:37:17.341Z,0.25
2022-08-19T19:39:46.620Z,0.20
2022-08-19T19:42:19.845Z,0.22
2022-08-19T19:44:50.362Z,0.43
2022-08-19T19:47:18.820Z,0.32
2022-08-19T19:50:12.822Z,0.30
2022-08-19T19:52:34.029Z,0.20
2022-08-19T19:55:01.406Z,0.40
2022-08-19T19:57:29.433Z,0.20
2022-08-19T19:59:56.579Z,0.20
2022-08-19T20:02:25.131Z,0.20
2022-08-19T20:04:52.790Z,0.20
2022-08-19T20:07:39.395Z,0.45
2022-08-19T20:10:06.238Z,0.22
2022-08-19T20:12:32.859Z,0.13
2022-08-19T20:14:59.375Z,0.03
2022-08-19T20:17:25.968Z,0.30
2022-08-19T20:19:53.516Z,0.10
2022-08-19T20:22:20.046Z,0.40
2022-08-19T20:24:48.397Z,0.15
2022-08-19T20:27:14.954Z,0.10
2022-08-19T20:29:44.317Z,0.10
2022-08-19T20:32:12.539Z,0.20
2022-08-19T20:34:40.350Z,0.10
2022-08-19T20:37:09.439Z,0.10
2022-08-19T20:39:36.396Z,0.10
2022-08-19T20:42:03.076Z,0.10
2022-08-19T20:44:29.637Z,0.20
2022-08-19T20:46:59.390Z,0.20
2022-08-19T20:49:27.763Z,0.10
2022-08-19T20:51:56.418Z,0.10
2022-08-19T20:54:24.166Z,0.20
2022-08-19T20:56:51.721Z,0.20
2022-08-19T20:59:20.126Z,0.20
2022-08-19T21:01:47.408Z,0.63
2022-08-19T21:06:40.455Z,0.30
2022-08-19T21:09:08.902Z,0.20
2022-08-19T21:11:36.108Z,0.15
2022-08-19T21:14:02.904Z,0.30
2022-08-19T21:16:32.523Z,0.17
2022-08-19T21:18:59.289Z,0.10
2022-08-19T21:21:26.147Z,0.10
2022-08-19T21:23:53.172Z,0.20
2022-08-19T21:26:19.962Z,0.20
2022-08-19T21:28:46.471Z,0.17
2022-08-19T21:31:15.120Z,0.20
2022-08-19T21:33:41.752Z,0.20
2022-08-19T21:36:08.678Z,0.20
2022-08-19T21:38:35.427Z,0.20
2022-08-19T21:41:05.944Z,0.20
2022-08-19T21:43:34.971Z,0.20
2022-08-19T21:46:01.914Z,0.28
2022-08-19T21:48:28.883Z,0.17
2022-08-19T21:50:55.403Z,0.20
2022-08-19T21:53:22.736Z,0.10
2022-08-19T21:55:53.480Z,0.10
2022-08-19T21:58:28.239Z,0.10
2022-08-19T22:00:56.777Z,0.57
2022-08-19T22:03:23.798Z,0.00
2022-08-19T22:05:50.843Z,0.13
2022-08-19T22:08:17.412Z,0.15
2022-08-19T22:10:43.994Z,0.20
2022-08-19T22:13:13.093Z,0.13
2022-08-19T22:15:39.712Z,0.10
2022-08-19T22:18:06.276Z,0.20
2022-08-19T22:20:33.110Z,0.40
2022-08-19T22:23:02.708Z,0.10
2022-08-19T22:25:35.956Z,0.20
2022-08-19T22:28:05.015Z,0.10
2022-08-19T22:30:34.192Z,0.13
2022-08-19T22:33:04.166Z,0.10
2022-08-19T22:35:33.768Z,0.30
2022-08-19T22:38:02.263Z,0.00
2022-08-19T22:40:30.631Z,0.20
2022-08-19T22:43:10.144Z,0.10
2022-08-19T22:45:37.764Z,0.10
2022-08-19T22:48:07.861Z,0.10
2022-08-19T22:50:35.407Z,0.10
2022-08-19T22:53:02.820Z,0.20
2022-08-19T22:55:31.170Z,0.20
2022-08-19T22:57:58.888Z,0.10
2022-08-19T23:00:28.236Z,0.10
2022-08-19T23:02:56.583Z,0.10
2022-08-19T23:05:27.409Z,0.20
2022-08-19T23:07:54.565Z,0.15
2022-08-19T23:12:57.727Z,0.10
2022-08-19T23:15:29.895Z,0.10
2022-08-19T23:18:00.808Z,0.15
2022-08-19T23:20:34.075Z,0.10
2022-08-19T23:23:08.374Z,0.10
2022-08-19T23:25:36.516Z,0.13
2022-08-19T23:28:23.812Z,0.10
2022-08-19T23:30:52.450Z,0.10
2022-08-19T23:33:21.679Z,0.08
2022-08-19T23:35:54.380Z,0.10
2022-08-19T23:38:23.290Z,0.10
2022-08-19T23:40:56.077Z,0.10
2022-08-19T23:43:25.132Z,0.10
2022-08-19T23:45:52.110Z,0.57
2022-08-19T23:48:18.767Z,0.20
2022-08-19T23:50:46.391Z,0.08
2022-08-19T23:53:13.948Z,0.13
2022-08-19T23:55:43.910Z,0.10
2022-08-19T23:58:11.480Z,0.10
